sensor_id;sensor_type;location;lat;lon;timestamp;temperature;humidity
64937;SHT30;51452;47.698;19.050;2023-08-17T00:02:00;23.21;77.07
64937;SHT30;51452;47.698;19.050;2023-08-17T00:04:25;23.17;77.10
64937;SHT30;51452;47.698;19.050;2023-08-17T00:06:51;23.18;77.24
64937;SHT30;51452;47.698;19.050;2023-08-17T00:09:16;23.17;77.31
64937;SHT30;51452;47.698;19.050;2023-08-17T00:11:42;23.12;77.35
64937;SHT30;51452;47.698;19.050;2023-08-17T00:14:07;22.97;74.18
64937;SHT30;51452;47.698;19.050;2023-08-17T00:16:33;23.03;74.54
64937;SHT30;51452;47.698;19.050;2023-08-17T00:19:00;23.05;76.24
64937;SHT30;51452;47.698;19.050;2023-08-17T00:21:26;23.03;75.33
64937;SHT30;51452;47.698;19.050;2023-08-17T00:23:51;23.05;73.14
64937;SHT30;51452;47.698;19.050;2023-08-17T00:26:17;23.05;73.77
64937;SHT30;51452;47.698;19.050;2023-08-17T00:28:42;22.94;73.12
64937;SHT30;51452;47.698;19.050;2023-08-17T00:31:07;22.90;73.54
64937;SHT30;51452;47.698;19.050;2023-08-17T00:33:33;22.91;73.30
64937;SHT30;51452;47.698;19.050;2023-08-17T00:35:58;22.93;73.55
64937;SHT30;51452;47.698;19.050;2023-08-17T00:38:24;22.87;73.19
64937;SHT30;51452;47.698;19.050;2023-08-17T00:40:49;22.83;73.10
64937;SHT30;51452;47.698;19.050;2023-08-17T00:43:15;22.91;73.45
64937;SHT30;51452;47.698;19.050;2023-08-17T00:45:40;22.83;72.91
64937;SHT30;51452;47.698;19.050;2023-08-17T00:48:06;22.77;72.96
64937;SHT30;51452;47.698;19.050;2023-08-17T00:50:34;22.83;73.64
64937;SHT30;51452;47.698;19.050;2023-08-17T00:53:01;22.83;73.43
64937;SHT30;51452;47.698;19.050;2023-08-17T00:55:27;22.83;72.87
64937;SHT30;51452;47.698;19.050;2023-08-17T00:57:53;22.90;72.93
64937;SHT30;51452;47.698;19.050;2023-08-17T01:00:21;22.86;72.03
64937;SHT30;51452;47.698;19.050;2023-08-17T01:02:47;22.86;71.40
64937;SHT30;51452;47.698;19.050;2023-08-17T01:05:13;22.90;70.86
64937;SHT30;51452;47.698;19.050;2023-08-17T01:07:38;22.97;71.97
64937;SHT30;51452;47.698;19.050;2023-08-17T01:10:06;23.15;71.98
64937;SHT30;51452;47.698;19.050;2023-08-17T01:12:38;23.19;73.73
64937;SHT30;51452;47.698;19.050;2023-08-17T01:15:21;23.10;73.96
64937;SHT30;51452;47.698;19.050;2023-08-17T01:17:56;23.05;73.93
64937;SHT30;51452;47.698;19.050;2023-08-17T01:20:23;23.04;74.15
64937;SHT30;51452;47.698;19.050;2023-08-17T01:22:50;23.03;71.67
64937;SHT30;51452;47.698;19.050;2023-08-17T01:25:16;23.01;71.92
64937;SHT30;51452;47.698;19.050;2023-08-17T01:27:44;23.19;71.89
64937;SHT30;51452;47.698;19.050;2023-08-17T01:30:11;23.27;72.97
64937;SHT30;51452;47.698;19.050;2023-08-17T01:32:41;23.27;73.73
64937;SHT30;51452;47.698;19.050;2023-08-17T01:38:00;23.27;73.16
64937;SHT30;51452;47.698;19.050;2023-08-17T01:40:31;23.22;72.53
64937;SHT30;51452;47.698;19.050;2023-08-17T01:42:58;23.25;73.19
64937;SHT30;51452;47.698;19.050;2023-08-17T01:45:24;23.21;72.69
64937;SHT30;51452;47.698;19.050;2023-08-17T01:47:50;23.19;72.87
64937;SHT30;51452;47.698;19.050;2023-08-17T01:50:16;23.14;72.71
64937;SHT30;51452;47.698;19.050;2023-08-17T01:52:41;23.12;72.25
64937;SHT30;51452;47.698;19.050;2023-08-17T01:55:07;23.19;73.07
64937;SHT30;51452;47.698;19.050;2023-08-17T01:57:33;23.08;73.31
64937;SHT30;51452;47.698;19.050;2023-08-17T02:00:00;22.97;72.25
64937;SHT30;51452;47.698;19.050;2023-08-17T02:02:25;22.98;72.41
64937;SHT30;51452;47.698;19.050;2023-08-17T02:04:50;23.00;72.98
64937;SHT30;51452;47.698;19.050;2023-08-17T02:07:16;22.91;72.54
64937;SHT30;51452;47.698;19.050;2023-08-17T02:09:41;22.88;72.61
64937;SHT30;51452;47.698;19.050;2023-08-17T02:12:07;22.94;72.95
64937;SHT30;51452;47.698;19.050;2023-08-17T02:14:33;22.86;72.58
64937;SHT30;51452;47.698;19.050;2023-08-17T02:16:59;22.90;73.46
64937;SHT30;51452;47.698;19.050;2023-08-17T02:19:24;22.93;73.00
64937;SHT30;51452;47.698;19.050;2023-08-17T02:21:49;22.90;72.99
64937;SHT30;51452;47.698;19.050;2023-08-17T02:24:15;22.96;73.37
64937;SHT30;51452;47.698;19.050;2023-08-17T02:26:40;22.91;73.47
64937;SHT30;51452;47.698;19.050;2023-08-17T02:29:06;22.84;73.13
64937;SHT30;51452;47.698;19.050;2023-08-17T02:31:31;22.94;73.30
64937;SHT30;51452;47.698;19.050;2023-08-17T02:33:56;23.00;73.20
64937;SHT30;51452;47.698;19.050;2023-08-17T02:36:31;22.94;72.90
64937;SHT30;51452;47.698;19.050;2023-08-17T02:38:56;22.84;72.81
64937;SHT30;51452;47.698;19.050;2023-08-17T02:41:21;22.88;72.89
64937;SHT30;51452;47.698;19.050;2023-08-17T02:43:47;22.94;73.39
64937;SHT30;51452;47.698;19.050;2023-08-17T02:46:12;22.87;73.62
64937;SHT30;51452;47.698;19.050;2023-08-17T02:48:38;22.93;73.79
64937;SHT30;51452;47.698;19.050;2023-08-17T02:51:03;22.93;73.73
64937;SHT30;51452;47.698;19.050;2023-08-17T02:53:29;23.00;73.39
64937;SHT30;51452;47.698;19.050;2023-08-17T02:55:54;22.93;73.22
64937;SHT30;51452;47.698;19.050;2023-08-17T02:58:20;22.91;73.01
64937;SHT30;51452;47.698;19.050;2023-08-17T03:00:45;22.91;73.00
64937;SHT30;51452;47.698;19.050;2023-08-17T03:03:10;22.96;72.98
64937;SHT30;51452;47.698;19.050;2023-08-17T03:05:36;22.93;73.28
64937;SHT30;51452;47.698;19.050;2023-08-17T03:08:01;22.87;73.68
64937;SHT30;51452;47.698;19.050;2023-08-17T03:10:27;22.93;73.41
64937;SHT30;51452;47.698;19.050;2023-08-17T03:12:52;22.91;73.34
64937;SHT30;51452;47.698;19.050;2023-08-17T03:15:18;22.96;73.40
64937;SHT30;51452;47.698;19.050;2023-08-17T03:17:43;23.01;73.51
64937;SHT30;51452;47.698;19.050;2023-08-17T03:20:09;22.91;74.41
64937;SHT30;51452;47.698;19.050;2023-08-17T03:22:34;22.91;75.17
64937;SHT30;51452;47.698;19.050;2023-08-17T03:25:00;22.90;75.70
64937;SHT30;51452;47.698;19.050;2023-08-17T03:27:25;22.88;76.46
64937;SHT30;51452;47.698;19.050;2023-08-17T03:29:51;22.94;76.02
64937;SHT30;51452;47.698;19.050;2023-08-17T03:32:17;22.88;75.81
64937;SHT30;51452;47.698;19.050;2023-08-17T03:34:42;22.83;76.14
64937;SHT30;51452;47.698;19.050;2023-08-17T03:37:08;22.83;76.73
64937;SHT30;51452;47.698;19.050;2023-08-17T03:39:33;22.91;76.66
64937;SHT30;51452;47.698;19.050;2023-08-17T03:41:58;22.91;76.64
64937;SHT30;51452;47.698;19.050;2023-08-17T03:44:24;22.80;76.50
64937;SHT30;51452;47.698;19.050;2023-08-17T03:46:49;22.84;76.80
64937;SHT30;51452;47.698;19.050;2023-08-17T03:49:14;22.86;76.95
64937;SHT30;51452;47.698;19.050;2023-08-17T03:51:40;22.84;76.86
64937;SHT30;51452;47.698;19.050;2023-08-17T03:54:05;22.81;76.94
64937;SHT30;51452;47.698;19.050;2023-08-17T03:56:31;22.80;77.00
64937;SHT30;51452;47.698;19.050;2023-08-17T03:58:56;22.80;77.05
64937;SHT30;51452;47.698;19.050;2023-08-17T04:01:22;22.81;76.87
64937;SHT30;51452;47.698;19.050;2023-08-17T04:03:47;22.80;76.47
64937;SHT30;51452;47.698;19.050;2023-08-17T04:06:12;22.81;75.49
64937;SHT30;51452;47.698;19.050;2023-08-17T04:08:38;22.78;75.88
64937;SHT30;51452;47.698;19.050;2023-08-17T04:11:04;22.83;75.99
64937;SHT30;51452;47.698;19.050;2023-08-17T04:13:30;22.81;76.60
64937;SHT30;51452;47.698;19.050;2023-08-17T04:15:55;22.84;76.82
64937;SHT30;51452;47.698;19.050;2023-08-17T04:18:21;22.80;77.03
64937;SHT30;51452;47.698;19.050;2023-08-17T04:20:46;22.76;77.13
64937;SHT30;51452;47.698;19.050;2023-08-17T04:23:11;22.78;76.74
64937;SHT30;51452;47.698;19.050;2023-08-17T04:25:37;22.76;76.89
64937;SHT30;51452;47.698;19.050;2023-08-17T04:28:02;22.68;77.45
64937;SHT30;51452;47.698;19.050;2023-08-17T04:30:28;22.60;77.53
64937;SHT30;51452;47.698;19.050;2023-08-17T04:32:53;22.63;77.31
64937;SHT30;51452;47.698;19.050;2023-08-17T04:35:19;22.64;77.09
64937;SHT30;51452;47.698;19.050;2023-08-17T04:37:45;22.68;77.41
64937;SHT30;51452;47.698;19.050;2023-08-17T04:40:12;22.67;78.16
64937;SHT30;51452;47.698;19.050;2023-08-17T04:42:37;22.61;78.17
64937;SHT30;51452;47.698;19.050;2023-08-17T04:45:03;22.61;78.38
64937;SHT30;51452;47.698;19.050;2023-08-17T04:47:29;22.64;78.24
64937;SHT30;51452;47.698;19.050;2023-08-17T04:49:54;22.73;76.95
64937;SHT30;51452;47.698;19.050;2023-08-17T04:52:19;22.74;76.07
64937;SHT30;51452;47.698;19.050;2023-08-17T04:54:45;22.87;76.55
64937;SHT30;51452;47.698;19.050;2023-08-17T04:57:10;22.93;76.91
64937;SHT30;51452;47.698;19.050;2023-08-17T04:59:36;22.96;77.21
64937;SHT30;51452;47.698;19.050;2023-08-17T05:02:01;22.98;76.85
64937;SHT30;51452;47.698;19.050;2023-08-17T05:04:29;22.94;76.79
64937;SHT30;51452;47.698;19.050;2023-08-17T05:06:55;23.01;76.71
64937;SHT30;51452;47.698;19.050;2023-08-17T05:09:20;23.05;75.68
64937;SHT30;51452;47.698;19.050;2023-08-17T05:11:46;23.00;75.21
64937;SHT30;51452;47.698;19.050;2023-08-17T05:14:12;23.00;73.79
64937;SHT30;51452;47.698;19.050;2023-08-17T05:16:37;23.04;74.68
64937;SHT30;51452;47.698;19.050;2023-08-17T05:19:03;23.05;75.27
64937;SHT30;51452;47.698;19.050;2023-08-17T05:21:28;23.10;74.46
64937;SHT30;51452;47.698;19.050;2023-08-17T05:23:55;23.15;75.81
64937;SHT30;51452;47.698;19.050;2023-08-17T05:26:20;23.22;76.01
64937;SHT30;51452;47.698;19.050;2023-08-17T05:28:46;23.27;76.23
64937;SHT30;51452;47.698;19.050;2023-08-17T05:31:11;23.24;76.29
64937;SHT30;51452;47.698;19.050;2023-08-17T05:33:39;23.29;75.07
64937;SHT30;51452;47.698;19.050;2023-08-17T05:36:10;23.29;76.44
64937;SHT30;51452;47.698;19.050;2023-08-17T05:38:36;23.42;75.67
64937;SHT30;51452;47.698;19.050;2023-08-17T05:41:04;23.45;76.06
64937;SHT30;51452;47.698;19.050;2023-08-17T05:43:32;23.56;75.33
64937;SHT30;51452;47.698;19.050;2023-08-17T05:45:58;23.69;73.39
64937;SHT30;51452;47.698;19.050;2023-08-17T05:48:26;23.75;70.97
64937;SHT30;51452;47.698;19.050;2023-08-17T05:50:51;23.87;70.45
64937;SHT30;51452;47.698;19.050;2023-08-17T05:53:17;24.02;74.05
64937;SHT30;51452;47.698;19.050;2023-08-17T05:55:42;24.24;73.85
64937;SHT30;51452;47.698;19.050;2023-08-17T05:58:08;24.31;69.26
64937;SHT30;51452;47.698;19.050;2023-08-17T06:00:33;24.26;64.66
64937;SHT30;51452;47.698;19.050;2023-08-17T06:03:02;24.41;65.44
64937;SHT30;51452;47.698;19.050;2023-08-17T06:05:28;24.45;65.90
64937;SHT30;51452;47.698;19.050;2023-08-17T06:07:55;24.58;66.90
64937;SHT30;51452;47.698;19.050;2023-08-17T06:10:20;24.58;69.04
64937;SHT30;51452;47.698;19.050;2023-08-17T06:12:51;24.47;65.75
64937;SHT30;51452;47.698;19.050;2023-08-17T06:15:16;24.47;64.73
64937;SHT30;51452;47.698;19.050;2023-08-17T06:17:41;24.41;65.85
64937;SHT30;51452;47.698;19.050;2023-08-17T06:20:08;24.31;66.95
64937;SHT30;51452;47.698;19.050;2023-08-17T06:22:35;24.23;65.15
64937;SHT30;51452;47.698;19.050;2023-08-17T06:25:01;24.28;65.68
64937;SHT30;51452;47.698;19.050;2023-08-17T06:27:26;24.23;66.44
64937;SHT30;51452;47.698;19.050;2023-08-17T06:29:51;24.26;65.93
64937;SHT30;51452;47.698;19.050;2023-08-17T06:32:17;24.27;64.44
64937;SHT30;51452;47.698;19.050;2023-08-17T06:34:42;24.40;63.39
64937;SHT30;51452;47.698;19.050;2023-08-17T06:37:08;24.43;62.97
64937;SHT30;51452;47.698;19.050;2023-08-17T06:39:33;24.64;63.69
64937;SHT30;51452;47.698;19.050;2023-08-17T06:41:59;24.75;65.47
64937;SHT30;51452;47.698;19.050;2023-08-17T06:44:24;24.67;63.47
64937;SHT30;51452;47.698;19.050;2023-08-17T06:46:49;24.69;64.87
64937;SHT30;51452;47.698;19.050;2023-08-17T06:49:15;24.54;62.96
64937;SHT30;51452;47.698;19.050;2023-08-17T06:51:40;24.63;63.93
64937;SHT30;51452;47.698;19.050;2023-08-17T06:54:07;24.48;63.82
64937;SHT30;51452;47.698;19.050;2023-08-17T06:56:34;24.41;63.32
64937;SHT30;51452;47.698;19.050;2023-08-17T06:58:59;24.30;63.89
64937;SHT30;51452;47.698;19.050;2023-08-17T07:01:24;24.12;63.11
64937;SHT30;51452;47.698;19.050;2023-08-17T07:03:50;24.06;65.04
64937;SHT30;51452;47.698;19.050;2023-08-17T07:06:15;24.02;65.45
64937;SHT30;51452;47.698;19.050;2023-08-17T07:08:40;24.10;65.93
64937;SHT30;51452;47.698;19.050;2023-08-17T07:11:15;23.92;63.80
64937;SHT30;51452;47.698;19.050;2023-08-17T07:13:40;23.97;64.26
64937;SHT30;51452;47.698;19.050;2023-08-17T07:16:06;24.13;66.65
64937;SHT30;51452;47.698;19.050;2023-08-17T07:18:31;24.10;65.05
64937;SHT30;51452;47.698;19.050;2023-08-17T07:20:57;24.16;65.17
64937;SHT30;51452;47.698;19.050;2023-08-17T07:23:22;24.20;65.50
64937;SHT30;51452;47.698;19.050;2023-08-17T07:25:48;24.14;64.68
64937;SHT30;51452;47.698;19.050;2023-08-17T07:28:14;24.16;66.12
64937;SHT30;51452;47.698;19.050;2023-08-17T07:30:40;24.23;65.03
64937;SHT30;51452;47.698;19.050;2023-08-17T07:33:06;24.30;65.71
64937;SHT30;51452;47.698;19.050;2023-08-17T07:35:31;24.41;65.69
64937;SHT30;51452;47.698;19.050;2023-08-17T07:37:57;24.45;65.91
64937;SHT30;51452;47.698;19.050;2023-08-17T07:40:22;24.47;65.84
64937;SHT30;51452;47.698;19.050;2023-08-17T07:42:47;24.21;64.77
64937;SHT30;51452;47.698;19.050;2023-08-17T07:45:13;24.16;65.99
64937;SHT30;51452;47.698;19.050;2023-08-17T07:47:39;24.06;66.24
64937;SHT30;51452;47.698;19.050;2023-08-17T07:50:05;23.96;66.38
64937;SHT30;51452;47.698;19.050;2023-08-17T07:52:31;24.12;66.45
64937;SHT30;51452;47.698;19.050;2023-08-17T07:54:56;24.34;65.31
64937;SHT30;51452;47.698;19.050;2023-08-17T07:57:22;24.55;64.04
64937;SHT30;51452;47.698;19.050;2023-08-17T07:59:47;24.67;64.55
64937;SHT30;51452;47.698;19.050;2023-08-17T08:02:13;24.72;63.46
64937;SHT30;51452;47.698;19.050;2023-08-17T08:04:38;24.69;63.26
64937;SHT30;51452;47.698;19.050;2023-08-17T08:07:04;24.78;63.88
64937;SHT30;51452;47.698;19.050;2023-08-17T08:09:29;25.04;63.05
64937;SHT30;51452;47.698;19.050;2023-08-17T08:11:54;25.25;63.39
64937;SHT30;51452;47.698;19.050;2023-08-17T08:14:20;25.32;63.98
64937;SHT30;51452;47.698;19.050;2023-08-17T08:16:45;25.59;64.10
64937;SHT30;51452;47.698;19.050;2023-08-17T08:19:12;25.59;64.37
64937;SHT30;51452;47.698;19.050;2023-08-17T08:21:37;25.53;64.84
64937;SHT30;51452;47.698;19.050;2023-08-17T08:24:03;25.60;64.23
64937;SHT30;51452;47.698;19.050;2023-08-17T08:26:28;25.77;65.42
64937;SHT30;51452;47.698;19.050;2023-08-17T08:28:54;25.73;64.30
64937;SHT30;51452;47.698;19.050;2023-08-17T08:31:19;25.77;62.74
64937;SHT30;51452;47.698;19.050;2023-08-17T08:33:44;25.62;64.73
64937;SHT30;51452;47.698;19.050;2023-08-17T08:36:10;25.47;63.78
64937;SHT30;51452;47.698;19.050;2023-08-17T08:38:35;25.49;64.64
64937;SHT30;51452;47.698;19.050;2023-08-17T08:41:01;25.57;64.24
64937;SHT30;51452;47.698;19.050;2023-08-17T08:43:27;25.63;65.11
64937;SHT30;51452;47.698;19.050;2023-08-17T08:45:54;25.62;65.28
64937;SHT30;51452;47.698;19.050;2023-08-17T08:48:22;25.77;65.20
64937;SHT30;51452;47.698;19.050;2023-08-17T08:50:50;25.67;64.49
64937;SHT30;51452;47.698;19.050;2023-08-17T08:53:15;25.56;63.69
64937;SHT30;51452;47.698;19.050;2023-08-17T08:56:10;25.76;65.61
64937;SHT30;51452;47.698;19.050;2023-08-17T08:58:36;25.80;65.33
64937;SHT30;51452;47.698;19.050;2023-08-17T09:01:03;26.00;63.93
64937;SHT30;51452;47.698;19.050;2023-08-17T09:03:31;26.04;63.92
64937;SHT30;51452;47.698;19.050;2023-08-17T09:05:57;25.98;61.77
64937;SHT30;51452;47.698;19.050;2023-08-17T09:08:30;26.07;60.18
64937;SHT30;51452;47.698;19.050;2023-08-17T09:10:56;26.20;60.23
64937;SHT30;51452;47.698;19.050;2023-08-17T09:13:21;26.28;60.98
64937;SHT30;51452;47.698;19.050;2023-08-17T09:15:47;26.42;60.25
64937;SHT30;51452;47.698;19.050;2023-08-17T09:18:12;26.63;59.65
64937;SHT30;51452;47.698;19.050;2023-08-17T09:20:45;26.71;59.79
64937;SHT30;51452;47.698;19.050;2023-08-17T09:23:15;26.87;58.81
64937;SHT30;51452;47.698;19.050;2023-08-17T09:25:43;26.93;56.64
64937;SHT30;51452;47.698;19.050;2023-08-17T09:28:13;26.95;58.16
64937;SHT30;51452;47.698;19.050;2023-08-17T09:31:00;26.95;57.79
64937;SHT30;51452;47.698;19.050;2023-08-17T09:33:29;27.02;57.85
64937;SHT30;51452;47.698;19.050;2023-08-17T09:35:56;27.06;57.29
64937;SHT30;51452;47.698;19.050;2023-08-17T09:38:22;27.13;58.26
64937;SHT30;51452;47.698;19.050;2023-08-17T09:40:48;27.14;59.13
64937;SHT30;51452;47.698;19.050;2023-08-17T09:43:14;27.33;58.14
64937;SHT30;51452;47.698;19.050;2023-08-17T09:45:40;27.47;58.64
64937;SHT30;51452;47.698;19.050;2023-08-17T09:48:07;27.57;57.86
64937;SHT30;51452;47.698;19.050;2023-08-17T09:50:34;27.44;57.79
64937;SHT30;51452;47.698;19.050;2023-08-17T09:52:59;27.43;58.12
64937;SHT30;51452;47.698;19.050;2023-08-17T09:55:25;27.44;58.19
64937;SHT30;51452;47.698;19.050;2023-08-17T09:57:51;27.43;58.22
64937;SHT30;51452;47.698;19.050;2023-08-17T10:00:19;27.50;58.54
64937;SHT30;51452;47.698;19.050;2023-08-17T10:02:45;27.53;60.68
64937;SHT30;51452;47.698;19.050;2023-08-17T10:05:16;27.53;56.93
64937;SHT30;51452;47.698;19.050;2023-08-17T10:07:45;27.57;57.52
64937;SHT30;51452;47.698;19.050;2023-08-17T10:10:13;27.45;56.83
64937;SHT30;51452;47.698;19.050;2023-08-17T10:12:45;27.50;56.92
64937;SHT30;51452;47.698;19.050;2023-08-17T10:15:15;27.47;58.29
64937;SHT30;51452;47.698;19.050;2023-08-17T10:17:52;27.38;57.51
64937;SHT30;51452;47.698;19.050;2023-08-17T10:20:18;27.29;57.34
64937;SHT30;51452;47.698;19.050;2023-08-17T10:23:07;27.18;57.37
64937;SHT30;51452;47.698;19.050;2023-08-17T10:25:36;27.26;58.13
64937;SHT30;51452;47.698;19.050;2023-08-17T10:28:03;27.22;59.92
64937;SHT30;51452;47.698;19.050;2023-08-17T10:30:29;27.34;59.57
64937;SHT30;51452;47.698;19.050;2023-08-17T10:32:55;27.37;61.36
64937;SHT30;51452;47.698;19.050;2023-08-17T10:35:23;27.50;56.75
64937;SHT30;51452;47.698;19.050;2023-08-17T10:37:49;27.59;57.82
64937;SHT30;51452;47.698;19.050;2023-08-17T10:40:15;27.62;57.62
64937;SHT30;51452;47.698;19.050;2023-08-17T10:42:40;27.65;58.15
64937;SHT30;51452;47.698;19.050;2023-08-17T10:45:25;27.62;57.29
64937;SHT30;51452;47.698;19.050;2023-08-17T10:47:59;27.62;59.44
64937;SHT30;51452;47.698;19.050;2023-08-17T10:50:25;27.54;58.51
64937;SHT30;51452;47.698;19.050;2023-08-17T10:52:53;27.54;58.95
64937;SHT30;51452;47.698;19.050;2023-08-17T10:55:35;27.54;58.79
64937;SHT30;51452;47.698;19.050;2023-08-17T10:58:01;27.44;59.05
64937;SHT30;51452;47.698;19.050;2023-08-17T11:00:33;27.31;57.53
64937;SHT30;51452;47.698;19.050;2023-08-17T11:03:01;27.37;57.11
64937;SHT30;51452;47.698;19.050;2023-08-17T11:05:46;27.34;57.94
64937;SHT30;51452;47.698;19.050;2023-08-17T11:11:11;27.50;57.42
64937;SHT30;51452;47.698;19.050;2023-08-17T11:13:38;27.51;59.06
64937;SHT30;51452;47.698;19.050;2023-08-17T11:16:05;27.54;56.99
64937;SHT30;51452;47.698;19.050;2023-08-17T11:18:32;27.68;59.03
64937;SHT30;51452;47.698;19.050;2023-08-17T11:20:57;27.54;56.49
64937;SHT30;51452;47.698;19.050;2023-08-17T11:23:24;27.30;55.98
64937;SHT30;51452;47.698;19.050;2023-08-17T11:25:50;27.40;58.44
64937;SHT30;51452;47.698;19.050;2023-08-17T11:28:17;27.38;59.68
64937;SHT30;51452;47.698;19.050;2023-08-17T11:30:43;27.26;57.12
64937;SHT30;51452;47.698;19.050;2023-08-17T11:33:09;27.38;57.85
64937;SHT30;51452;47.698;19.050;2023-08-17T11:35:35;27.41;57.78
64937;SHT30;51452;47.698;19.050;2023-08-17T11:38:02;27.47;59.48
64937;SHT30;51452;47.698;19.050;2023-08-17T11:40:28;27.45;57.13
64937;SHT30;51452;47.698;19.050;2023-08-17T11:42:55;27.50;58.39
64937;SHT30;51452;47.698;19.050;2023-08-17T11:45:20;27.35;60.96
64937;SHT30;51452;47.698;19.050;2023-08-17T11:47:47;27.44;59.64
64937;SHT30;51452;47.698;19.050;2023-08-17T11:50:13;27.43;57.89
64937;SHT30;51452;47.698;19.050;2023-08-17T11:52:38;27.35;60.07
64937;SHT30;51452;47.698;19.050;2023-08-17T11:55:05;27.40;59.92
64937;SHT30;51452;47.698;19.050;2023-08-17T11:57:32;27.33;57.17
64937;SHT30;51452;47.698;19.050;2023-08-17T11:59:58;27.43;57.73
64937;SHT30;51452;47.698;19.050;2023-08-17T12:02:25;27.40;58.08
64937;SHT30;51452;47.698;19.050;2023-08-17T12:04:51;27.59;58.04
64937;SHT30;51452;47.698;19.050;2023-08-17T12:07:18;27.62;59.99
64937;SHT30;51452;47.698;19.050;2023-08-17T12:09:47;27.55;56.79
64937;SHT30;51452;47.698;19.050;2023-08-17T12:12:13;27.65;58.35
64937;SHT30;51452;47.698;19.050;2023-08-17T12:14:42;27.77;59.44
64937;SHT30;51452;47.698;19.050;2023-08-17T12:17:16;27.72;57.36
64937;SHT30;51452;47.698;19.050;2023-08-17T12:19:43;27.74;56.26
64937;SHT30;51452;47.698;19.050;2023-08-17T12:22:12;27.71;57.52
64937;SHT30;51452;47.698;19.050;2023-08-17T12:24:38;27.68;57.09
64937;SHT30;51452;47.698;19.050;2023-08-17T12:27:05;27.85;58.25
64937;SHT30;51452;47.698;19.050;2023-08-17T12:29:30;27.92;59.06
64937;SHT30;51452;47.698;19.050;2023-08-17T12:32:01;27.95;54.08
64937;SHT30;51452;47.698;19.050;2023-08-17T12:34:27;27.96;56.85
64937;SHT30;51452;47.698;19.050;2023-08-17T12:36:52;28.06;57.00
64937;SHT30;51452;47.698;19.050;2023-08-17T12:39:18;28.10;55.83
64937;SHT30;51452;47.698;19.050;2023-08-17T12:41:43;28.16;55.70
64937;SHT30;51452;47.698;19.050;2023-08-17T12:44:10;28.16;56.47
64937;SHT30;51452;47.698;19.050;2023-08-17T12:46:39;28.17;55.47
64937;SHT30;51452;47.698;19.050;2023-08-17T12:49:05;28.19;55.86
64937;SHT30;51452;47.698;19.050;2023-08-17T12:51:30;28.35;56.25
64937;SHT30;51452;47.698;19.050;2023-08-17T12:53:56;28.35;55.69
64937;SHT30;51452;47.698;19.050;2023-08-17T12:56:21;28.40;54.07
64937;SHT30;51452;47.698;19.050;2023-08-17T12:58:47;28.56;55.38
64937;SHT30;51452;47.698;19.050;2023-08-17T13:01:12;28.59;55.69
64937;SHT30;51452;47.698;19.050;2023-08-17T13:03:39;28.64;56.74
64937;SHT30;51452;47.698;19.050;2023-08-17T13:06:04;28.59;56.93
64937;SHT30;51452;47.698;19.050;2023-08-17T13:08:30;28.66;56.05
64937;SHT30;51452;47.698;19.050;2023-08-17T13:10:55;28.68;54.61
64937;SHT30;51452;47.698;19.050;2023-08-17T13:13:21;28.66;56.48
64937;SHT30;51452;47.698;19.050;2023-08-17T13:15:46;28.74;56.92
64937;SHT30;51452;47.698;19.050;2023-08-17T13:18:12;28.77;55.76
64937;SHT30;51452;47.698;19.050;2023-08-17T13:20:37;28.67;55.34
64937;SHT30;51452;47.698;19.050;2023-08-17T13:23:04;28.77;56.66
64937;SHT30;51452;47.698;19.050;2023-08-17T13:25:29;28.77;54.36
64937;SHT30;51452;47.698;19.050;2023-08-17T13:27:55;28.70;55.06
64937;SHT30;51452;47.698;19.050;2023-08-17T13:30:20;28.76;55.97
64937;SHT30;51452;47.698;19.050;2023-08-17T13:32:46;28.68;59.52
64937;SHT30;51452;47.698;19.050;2023-08-17T13:35:12;28.70;57.60
64937;SHT30;51452;47.698;19.050;2023-08-17T13:37:37;28.61;56.74
64937;SHT30;51452;47.698;19.050;2023-08-17T13:40:03;28.57;55.00
64937;SHT30;51452;47.698;19.050;2023-08-17T13:42:29;28.61;55.89
64937;SHT30;51452;47.698;19.050;2023-08-17T13:44:54;28.50;56.24
64937;SHT30;51452;47.698;19.050;2023-08-17T13:47:19;28.66;55.61
64937;SHT30;51452;47.698;19.050;2023-08-17T13:49:45;28.81;55.24
64937;SHT30;51452;47.698;19.050;2023-08-17T13:52:10;28.95;55.64
64937;SHT30;51452;47.698;19.050;2023-08-17T13:54:36;28.88;54.90
64937;SHT30;51452;47.698;19.050;2023-08-17T13:57:01;28.78;55.08
64937;SHT30;51452;47.698;19.050;2023-08-17T13:59:27;28.57;58.03
64937;SHT30;51452;47.698;19.050;2023-08-17T14:01:52;28.42;54.61
64937;SHT30;51452;47.698;19.050;2023-08-17T14:04:18;28.25;55.57
64937;SHT30;51452;47.698;19.050;2023-08-17T14:06:44;28.22;56.88
64937;SHT30;51452;47.698;19.050;2023-08-17T14:09:09;28.20;56.51
64937;SHT30;51452;47.698;19.050;2023-08-17T14:11:34;28.25;56.06
64937;SHT30;51452;47.698;19.050;2023-08-17T14:14:00;28.39;56.94
64937;SHT30;51452;47.698;19.050;2023-08-17T14:16:25;28.70;56.08
64937;SHT30;51452;47.698;19.050;2023-08-17T14:18:50;28.93;53.88
64937;SHT30;51452;47.698;19.050;2023-08-17T14:21:16;28.97;52.00
64937;SHT30;51452;47.698;19.050;2023-08-17T14:23:41;28.98;53.93
64937;SHT30;51452;47.698;19.050;2023-08-17T14:26:07;29.03;53.75
64937;SHT30;51452;47.698;19.050;2023-08-17T14:28:32;28.88;53.76
64937;SHT30;51452;47.698;19.050;2023-08-17T14:30:58;28.83;53.95
64937;SHT30;51452;47.698;19.050;2023-08-17T14:33:23;28.68;54.59
64937;SHT30;51452;47.698;19.050;2023-08-17T14:35:49;28.53;54.44
64937;SHT30;51452;47.698;19.050;2023-08-17T14:38:15;28.46;55.78
64937;SHT30;51452;47.698;19.050;2023-08-17T14:40:45;28.39;56.17
64937;SHT30;51452;47.698;19.050;2023-08-17T14:43:12;28.35;58.02
64937;SHT30;51452;47.698;19.050;2023-08-17T14:45:42;28.23;57.34
64937;SHT30;51452;47.698;19.050;2023-08-17T14:48:08;28.13;57.46
64937;SHT30;51452;47.698;19.050;2023-08-17T14:50:35;28.06;57.98
64937;SHT30;51452;47.698;19.050;2023-08-17T14:53:01;28.12;57.50
64937;SHT30;51452;47.698;19.050;2023-08-17T14:55:32;27.98;56.90
64937;SHT30;51452;47.698;19.050;2023-08-17T14:57:57;28.01;57.75
64937;SHT30;51452;47.698;19.050;2023-08-17T15:00:24;27.99;57.51
64937;SHT30;51452;47.698;19.050;2023-08-17T15:02:50;27.98;56.86
64937;SHT30;51452;47.698;19.050;2023-08-17T15:05:15;27.78;57.96
64937;SHT30;51452;47.698;19.050;2023-08-17T15:07:41;27.62;57.60
64937;SHT30;51452;47.698;19.050;2023-08-17T15:10:07;27.51;57.61
64937;SHT30;51452;47.698;19.050;2023-08-17T15:12:32;27.35;58.79
64937;SHT30;51452;47.698;19.050;2023-08-17T15:14:58;27.31;58.70
64937;SHT30;51452;47.698;19.050;2023-08-17T15:17:24;27.22;59.54